sensor_id;sensor_type;location;lat;lon;timestamp;pressure;altitude;pressure_sealevel;temperature;humidity
79174;BME280;68599;49.142;9.124;2024-01-11T00:00:30;100868.01;;;-4.28;62.06
79174;BME280;68599;49.142;9.124;2024-01-11T00:02:56;100868.45;;;-4.32;62.63
79174;BME280;68599;49.142;9.124;2024-01-11T00:05:23;100866.96;;;-4.41;65.48
79174;BME280;68599;49.142;9.124;2024-01-11T00:07:50;100871.23;;;-4.43;62.97
79174;BME280;68599;49.142;9.124;2024-01-11T00:10:16;100873.06;;;-4.48;62.34
79174;BME280;68599;49.142;9.124;2024-01-11T00:12:43;100871.91;;;-4.55;62.72
79174;BME280;68599;49.142;9.124;2024-01-11T00:15:10;100871.83;;;-4.57;62.65
79174;BME280;68599;49.142;9.124;2024-01-11T00:17:37;100871.41;;;-4.63;64.04
79174;BME280;68599;49.142;9.124;2024-01-11T00:20:05;100875.15;;;-4.65;62.91
79174;BME280;68599;49.142;9.124;2024-01-11T00:22:32;100870.44;;;-4.65;62.38
79174;BME280;68599;49.142;9.124;2024-01-11T00:24:58;100864.67;;;-4.67;63.42
79174;BME280;68599;49.142;9.124;2024-01-11T00:27:25;100868.77;;;-4.74;64.89
79174;BME280;68599;49.142;9.124;2024-01-11T00:29:53;100873.35;;;-4.80;64.99
79174;BME280;68599;49.142;9.124;2024-01-11T00:32:20;100876.78;;;-4.81;63.48
79174;BME280;68599;49.142;9.124;2024-01-11T00:34:48;100883.21;;;-4.82;65.98
79174;BME280;68599;49.142;9.124;2024-01-11T00:37:14;100886.28;;;-4.84;65.38
79174;BME280;68599;49.142;9.124;2024-01-11T00:39:41;100883.05;;;-4.85;64.78
79174;BME280;68599;49.142;9.124;2024-01-11T00:42:07;100881.05;;;-4.83;63.39
79174;BME280;68599;49.142;9.124;2024-01-11T00:44:34;100874.73;;;-4.82;62.85
79174;BME280;68599;49.142;9.124;2024-01-11T00:47:00;100872.64;;;-4.82;62.85
79174;BME280;68599;49.142;9.124;2024-01-11T00:49:27;100868.83;;;-4.81;63.24
79174;BME280;68599;49.142;9.124;2024-01-11T00:51:54;100870.94;;;-4.76;63.07
79174;BME280;68599;49.142;9.124;2024-01-11T00:54:20;100873.50;;;-4.75;62.87
79174;BME280;68599;49.142;9.124;2024-01-11T00:56:47;100878.39;;;-4.75;63.06
79174;BME280;68599;49.142;9.124;2024-01-11T00:59:14;100876.64;;;-4.72;63.86
79174;BME280;68599;49.142;9.124;2024-01-11T01:01:46;100879.42;;;-4.75;63.99
79174;BME280;68599;49.142;9.124;2024-01-11T01:04:13;100884.17;;;-4.72;63.37
79174;BME280;68599;49.142;9.124;2024-01-11T01:06:41;100886.77;;;-4.70;64.10
79174;BME280;68599;49.142;9.124;2024-01-11T01:09:07;100887.39;;;-4.72;64.54
79174;BME280;68599;49.142;9.124;2024-01-11T01:11:34;100890.10;;;-4.71;63.53
79174;BME280;68599;49.142;9.124;2024-01-11T01:14:01;100892.85;;;-4.77;65.02
79174;BME280;68599;49.142;9.124;2024-01-11T01:16:27;100895.42;;;-4.81;64.06
79174;BME280;68599;49.142;9.124;2024-01-11T01:18:54;100889.03;;;-4.76;63.72
79174;BME280;68599;49.142;9.124;2024-01-11T01:21:21;100890.12;;;-4.73;63.79
79174;BME280;68599;49.142;9.124;2024-01-11T01:23:47;100886.16;;;-4.77;63.74
79174;BME280;68599;49.142;9.124;2024-01-11T01:26:14;100891.77;;;-4.80;65.63
79174;BME280;68599;49.142;9.124;2024-01-11T01:28:41;100896.16;;;-4.80;64.75
79174;BME280;68599;49.142;9.124;2024-01-11T01:31:07;100898.97;;;-4.78;64.27
79174;BME280;68599;49.142;9.124;2024-01-11T01:33:34;100904.88;;;-4.76;64.29
79174;BME280;68599;49.142;9.124;2024-01-11T01:36:01;100905.77;;;-4.70;64.11
79174;BME280;68599;49.142;9.124;2024-01-11T01:38:28;100903.83;;;-4.59;63.75
79174;BME280;68599;49.142;9.124;2024-01-11T01:40:57;100899.15;;;-4.52;63.77
79174;BME280;68599;49.142;9.124;2024-01-11T01:43:24;100906.07;;;-4.49;63.43
79174;BME280;68599;49.142;9.124;2024-01-11T01:45:50;100909.54;;;-4.47;63.79
79174;BME280;68599;49.142;9.124;2024-01-11T01:48:17;100908.10;;;-4.53;64.98
79174;BME280;68599;49.142;9.124;2024-01-11T01:50:46;100903.06;;;-4.60;64.56
79174;BME280;68599;49.142;9.124;2024-01-11T01:53:21;100909.98;;;-4.65;64.56
79174;BME280;68599;49.142;9.124;2024-01-11T01:55:49;100915.91;;;-4.63;64.39
79174;BME280;68599;49.142;9.124;2024-01-11T01:58:17;100919.58;;;-4.63;64.12
79174;BME280;68599;49.142;9.124;2024-01-11T02:00:45;100915.36;;;-4.66;64.20
79174;BME280;68599;49.142;9.124;2024-01-11T02:03:15;100919.02;;;-4.61;64.22
79174;BME280;68599;49.142;9.124;2024-01-11T02:05:42;100922.61;;;-4.68;65.44
79174;BME280;68599;49.142;9.124;2024-01-11T02:08:15;100929.80;;;-4.87;66.75
79174;BME280;68599;49.142;9.124;2024-01-11T02:10:43;100926.60;;;-4.91;65.31
79174;BME280;68599;49.142;9.124;2024-01-11T02:13:10;100925.80;;;-4.89;65.16
79174;BME280;68599;49.142;9.124;2024-01-11T02:15:37;100922.66;;;-4.86;65.11
79174;BME280;68599;49.142;9.124;2024-01-11T02:18:04;100921.03;;;-4.85;65.10
79174;BME280;68599;49.142;9.124;2024-01-11T02:20:31;100916.52;;;-4.80;64.29
79174;BME280;68599;49.142;9.124;2024-01-11T02:23:03;100911.72;;;-4.82;64.33
79174;BME280;68599;49.142;9.124;2024-01-11T02:25:31;100909.20;;;-4.85;66.11
79174;BME280;68599;49.142;9.124;2024-01-11T02:27:58;100905.62;;;-4.92;66.64
79174;BME280;68599;49.142;9.124;2024-01-11T02:30:24;100901.45;;;-4.93;65.26
79174;BME280;68599;49.142;9.124;2024-01-11T02:32:52;100903.36;;;-4.94;65.05
79174;BME280;68599;49.142;9.124;2024-01-11T02:35:19;100904.50;;;-4.90;64.93
79174;BME280;68599;49.142;9.124;2024-01-11T02:37:46;100906.08;;;-4.85;65.23
79174;BME280;68599;49.142;9.124;2024-01-11T02:40:14;100908.49;;;-4.90;65.86
79174;BME280;68599;49.142;9.124;2024-01-11T02:42:42;100907.21;;;-4.94;65.12
79174;BME280;68599;49.142;9.124;2024-01-11T02:45:10;100907.38;;;-4.97;64.96
79174;BME280;68599;49.142;9.124;2024-01-11T02:47:38;100905.39;;;-5.01;65.38
79174;BME280;68599;49.142;9.124;2024-01-11T02:50:06;100905.18;;;-4.96;65.17
79174;BME280;68599;49.142;9.124;2024-01-11T02:52:34;100911.30;;;-4.96;66.47
79174;BME280;68599;49.142;9.124;2024-01-11T02:55:00;100913.64;;;-5.06;66.83
79174;BME280;68599;49.142;9.124;2024-01-11T02:57:27;100907.50;;;-5.09;66.33
79174;BME280;68599;49.142;9.124;2024-01-11T02:59:54;100907.08;;;-5.13;65.60
79174;BME280;68599;49.142;9.124;2024-01-11T03:02:21;100909.04;;;-5.15;66.05
79174;BME280;68599;49.142;9.124;2024-01-11T03:04:47;100909.27;;;-5.09;65.76
79174;BME280;68599;49.142;9.124;2024-01-11T03:07:14;100908.71;;;-5.06;65.75
79174;BME280;68599;49.142;9.124;2024-01-11T03:09:41;100907.58;;;-5.05;66.07
79174;BME280;68599;49.142;9.124;2024-01-11T03:12:07;100906.16;;;-5.00;65.44
79174;BME280;68599;49.142;9.124;2024-01-11T03:14:34;100906.90;;;-4.93;65.38
79174;BME280;68599;49.142;9.124;2024-01-11T03:17:00;100906.50;;;-4.92;65.55
79174;BME280;68599;49.142;9.124;2024-01-11T03:19:28;100906.40;;;-4.99;66.16
79174;BME280;68599;49.142;9.124;2024-01-11T03:21:55;100906.63;;;-5.01;65.57
79174;BME280;68599;49.142;9.124;2024-01-11T03:24:21;100908.44;;;-5.05;67.57
79174;BME280;68599;49.142;9.124;2024-01-11T03:26:48;100906.45;;;-5.11;66.50
79174;BME280;68599;49.142;9.124;2024-01-11T03:29:15;100903.91;;;-5.13;66.13
79174;BME280;68599;49.142;9.124;2024-01-11T03:31:42;100899.54;;;-5.15;65.99
79174;BME280;68599;49.142;9.124;2024-01-11T03:34:12;100895.00;;;-5.20;65.70
79174;BME280;68599;49.142;9.124;2024-01-11T03:36:39;100893.73;;;-5.23;65.73
79174;BME280;68599;49.142;9.124;2024-01-11T03:39:06;100890.70;;;-5.21;66.46
79174;BME280;68599;49.142;9.124;2024-01-11T03:41:33;100891.33;;;-5.22;66.52
79174;BME280;68599;49.142;9.124;2024-01-11T03:44:00;100895.98;;;-5.18;65.81
79174;BME280;68599;49.142;9.124;2024-01-11T03:46:27;100901.39;;;-5.13;65.65
79174;BME280;68599;49.142;9.124;2024-01-11T03:48:54;100903.66;;;-5.06;65.57
79174;BME280;68599;49.142;9.124;2024-01-11T03:51:22;100899.49;;;-5.05;65.97
79174;BME280;68599;49.142;9.124;2024-01-11T03:53:49;100900.84;;;-5.09;65.49
79174;BME280;68599;49.142;9.124;2024-01-11T03:56:15;100896.52;;;-5.10;65.54
79174;BME280;68599;49.142;9.124;2024-01-11T03:58:42;100897.84;;;-5.11;65.45
79174;BME280;68599;49.142;9.124;2024-01-11T04:01:11;100895.77;;;-5.11;65.49
79174;BME280;68599;49.142;9.124;2024-01-11T04:03:37;100891.32;;;-5.06;65.52
79174;BME280;68599;49.142;9.124;2024-01-11T04:06:04;100889.89;;;-5.07;65.46
79174;BME280;68599;49.142;9.124;2024-01-11T04:08:31;100896.88;;;-5.02;65.08
79174;BME280;68599;49.142;9.124;2024-01-11T04:11:02;100896.19;;;-5.05;65.42
79174;BME280;68599;49.142;9.124;2024-01-11T04:13:29;100898.17;;;-5.12;65.92
79174;BME280;68599;49.142;9.124;2024-01-11T04:15:55;100896.96;;;-5.11;65.91
79174;BME280;68599;49.142;9.124;2024-01-11T04:18:22;100896.48;;;-5.13;65.57
79174;BME280;68599;49.142;9.124;2024-01-11T04:20:49;100892.77;;;-5.11;65.23
79174;BME280;68599;49.142;9.124;2024-01-11T04:23:15;100891.04;;;-5.13;65.42
79174;BME280;68599;49.142;9.124;2024-01-11T04:25:42;100890.34;;;-5.08;65.02
79174;BME280;68599;49.142;9.124;2024-01-11T04:28:08;100892.84;;;-5.04;65.09
79174;BME280;68599;49.142;9.124;2024-01-11T04:30:36;100886.52;;;-5.02;64.97
79174;BME280;68599;49.142;9.124;2024-01-11T04:33:03;100885.25;;;-5.00;64.88
79174;BME280;68599;49.142;9.124;2024-01-11T04:35:30;100881.84;;;-4.95;64.81
79174;BME280;68599;49.142;9.124;2024-01-11T04:37:56;100885.80;;;-4.85;64.96
79174;BME280;68599;49.142;9.124;2024-01-11T04:40:23;100886.58;;;-4.79;64.68
79174;BME280;68599;49.142;9.124;2024-01-11T04:42:49;100889.04;;;-4.76;64.47
79174;BME280;68599;49.142;9.124;2024-01-11T04:45:16;100892.52;;;-4.74;64.70
79174;BME280;68599;49.142;9.124;2024-01-11T04:47:43;100897.88;;;-4.73;64.59
79174;BME280;68599;49.142;9.124;2024-01-11T04:50:10;100900.02;;;-4.75;64.66
79174;BME280;68599;49.142;9.124;2024-01-11T04:52:36;100905.31;;;-4.75;64.59
79174;BME280;68599;49.142;9.124;2024-01-11T04:55:04;100905.20;;;-4.76;64.66
79174;BME280;68599;49.142;9.124;2024-01-11T04:57:31;100907.10;;;-4.85;64.99
79174;BME280;68599;49.142;9.124;2024-01-11T04:59:58;100911.73;;;-4.87;64.84
79174;BME280;68599;49.142;9.124;2024-01-11T05:02:29;100915.45;;;-4.89;64.67
79174;BME280;68599;49.142;9.124;2024-01-11T05:04:55;100912.05;;;-4.90;64.77
79174;BME280;68599;49.142;9.124;2024-01-11T05:07:22;100913.81;;;-4.87;64.77
79174;BME280;68599;49.142;9.124;2024-01-11T05:09:48;100912.61;;;-4.92;65.36
79174;BME280;68599;49.142;9.124;2024-01-11T05:12:15;100913.80;;;-5.01;66.38
79174;BME280;68599;49.142;9.124;2024-01-11T05:14:42;100918.83;;;-5.08;65.62
79174;BME280;68599;49.142;9.124;2024-01-11T05:17:09;100916.08;;;-5.07;65.31
79174;BME280;68599;49.142;9.124;2024-01-11T05:19:36;100916.20;;;-5.02;65.40
79174;BME280;68599;49.142;9.124;2024-01-11T05:22:03;100916.19;;;-5.00;65.50
79174;BME280;68599;49.142;9.124;2024-01-11T05:24:29;100915.02;;;-5.02;64.88
79174;BME280;68599;49.142;9.124;2024-01-11T05:26:56;100919.10;;;-5.09;65.14
79174;BME280;68599;49.142;9.124;2024-01-11T05:29:22;100918.98;;;-5.08;65.26
79174;BME280;68599;49.142;9.124;2024-01-11T05:31:49;100925.48;;;-5.05;65.37
79174;BME280;68599;49.142;9.124;2024-01-11T05:34:16;100931.52;;;-4.99;65.12
79174;BME280;68599;49.142;9.124;2024-01-11T05:36:42;100924.97;;;-5.00;65.04
79174;BME280;68599;49.142;9.124;2024-01-11T05:39:09;100925.17;;;-5.10;66.50
79174;BME280;68599;49.142;9.124;2024-01-11T05:41:36;100927.70;;;-5.14;65.28
79174;BME280;68599;49.142;9.124;2024-01-11T05:44:03;100929.40;;;-5.15;65.08
79174;BME280;68599;49.142;9.124;2024-01-11T05:46:30;100934.56;;;-5.17;65.40
79174;BME280;68599;49.142;9.124;2024-01-11T05:48:59;100933.38;;;-5.16;65.12
79174;BME280;68599;49.142;9.124;2024-01-11T05:51:26;100938.71;;;-5.21;66.42
79174;BME280;68599;49.142;9.124;2024-01-11T05:53:53;100939.98;;;-5.36;67.05
79174;BME280;68599;49.142;9.124;2024-01-11T05:56:20;100936.81;;;-5.41;66.44
79174;BME280;68599;49.142;9.124;2024-01-11T05:58:47;100940.52;;;-5.38;66.59
79174;BME280;68599;49.142;9.124;2024-01-11T06:01:14;100945.23;;;-5.30;66.50
79174;BME280;68599;49.142;9.124;2024-01-11T06:03:41;100942.38;;;-5.21;66.30
79174;BME280;68599;49.142;9.124;2024-01-11T06:06:08;100945.16;;;-5.11;66.16
79174;BME280;68599;49.142;9.124;2024-01-11T06:08:35;100940.16;;;-5.09;65.76
79174;BME280;68599;49.142;9.124;2024-01-11T06:11:02;100937.19;;;-5.11;65.81
79174;BME280;68599;49.142;9.124;2024-01-11T06:13:31;100936.11;;;-5.12;65.85
79174;BME280;68599;49.142;9.124;2024-01-11T06:15:57;100940.13;;;-5.15;65.96
79174;BME280;68599;49.142;9.124;2024-01-11T06:18:24;100943.59;;;-5.13;65.91
79174;BME280;68599;49.142;9.124;2024-01-11T06:20:51;100948.81;;;-5.09;65.63
79174;BME280;68599;49.142;9.124;2024-01-11T06:23:17;100949.86;;;-5.03;65.38
79174;BME280;68599;49.142;9.124;2024-01-11T06:25:46;100950.02;;;-5.01;65.36
79174;BME280;68599;49.142;9.124;2024-01-11T06:28:13;100952.48;;;-4.95;65.52
79174;BME280;68599;49.142;9.124;2024-01-11T06:30:40;100949.91;;;-4.94;64.99
79174;BME280;68599;49.142;9.124;2024-01-11T06:33:06;100952.64;;;-5.04;65.24
79174;BME280;68599;49.142;9.124;2024-01-11T06:35:33;100945.06;;;-5.17;66.33
79174;BME280;68599;49.142;9.124;2024-01-11T06:38:00;100948.05;;;-5.30;66.31
79174;BME280;68599;49.142;9.124;2024-01-11T06:40:27;100947.05;;;-5.37;66.14
79174;BME280;68599;49.142;9.124;2024-01-11T06:42:54;100946.29;;;-5.41;66.36
79174;BME280;68599;49.142;9.124;2024-01-11T06:45:20;100955.04;;;-5.39;65.88
79174;BME280;68599;49.142;9.124;2024-01-11T06:47:47;100957.71;;;-5.35;66.81
79174;BME280;68599;49.142;9.124;2024-01-11T06:50:16;100954.90;;;-5.30;66.12
79174;BME280;68599;49.142;9.124;2024-01-11T06:52:42;100953.20;;;-5.30;66.67
79174;BME280;68599;49.142;9.124;2024-01-11T06:55:09;100961.68;;;-5.39;67.72
79174;BME280;68599;49.142;9.124;2024-01-11T06:57:37;100969.75;;;-5.35;66.51
79174;BME280;68599;49.142;9.124;2024-01-11T07:00:05;100973.52;;;-5.25;66.24
79174;BME280;68599;49.142;9.124;2024-01-11T07:02:33;100977.26;;;-5.22;65.68
79174;BME280;68599;49.142;9.124;2024-01-11T07:05:00;100977.80;;;-5.17;65.82
79174;BME280;68599;49.142;9.124;2024-01-11T07:07:27;100983.60;;;-5.16;65.69
79174;BME280;68599;49.142;9.124;2024-01-11T07:09:53;100986.55;;;-5.20;65.78
79174;BME280;68599;49.142;9.124;2024-01-11T07:12:22;100990.20;;;-5.25;66.52
79174;BME280;68599;49.142;9.124;2024-01-11T07:14:49;100995.70;;;-5.22;65.93
79174;BME280;68599;49.142;9.124;2024-01-11T07:17:15;100993.90;;;-5.17;65.60
79174;BME280;68599;49.142;9.124;2024-01-11T07:19:42;100998.37;;;-5.14;65.74
79174;BME280;68599;49.142;9.124;2024-01-11T07:22:09;101016.09;;;-5.09;65.96
79174;BME280;68599;49.142;9.124;2024-01-11T07:24:37;101015.20;;;-5.09;66.10
79174;BME280;68599;49.142;9.124;2024-01-11T07:27:05;101010.60;;;-5.10;66.70
79174;BME280;68599;49.142;9.124;2024-01-11T07:29:33;101010.12;;;-5.04;66.21
79174;BME280;68599;49.142;9.124;2024-01-11T07:32:00;101011.29;;;-4.94;65.97
79174;BME280;68599;49.142;9.124;2024-01-11T07:34:27;101008.17;;;-4.85;66.26
79174;BME280;68599;49.142;9.124;2024-01-11T07:36:54;101022.84;;;-4.73;66.55
79174;BME280;68599;49.142;9.124;2024-01-11T07:39:21;101027.48;;;-4.48;65.85
79174;BME280;68599;49.142;9.124;2024-01-11T07:41:49;101028.27;;;-4.14;66.10
79174;BME280;68599;49.142;9.124;2024-01-11T07:44:15;101028.48;;;-3.71;65.65
79174;BME280;68599;49.142;9.124;2024-01-11T07:46:43;101034.35;;;-3.25;65.01
79174;BME280;68599;49.142;9.124;2024-01-11T07:49:19;101031.98;;;-2.75;64.43
79174;BME280;68599;49.142;9.124;2024-01-11T07:51:47;101038.17;;;-2.66;64.46
79174;BME280;68599;49.142;9.124;2024-01-11T07:54:13;101043.48;;;-2.44;64.06
79174;BME280;68599;49.142;9.124;2024-01-11T07:56:40;101041.16;;;-2.23;62.66
79174;BME280;68599;49.142;9.124;2024-01-11T07:59:07;101044.85;;;-2.29;62.76
79174;BME280;68599;49.142;9.124;2024-01-11T08:01:33;101046.44;;;-2.48;63.00
79174;BME280;68599;49.142;9.124;2024-01-11T08:04:02;101053.39;;;-2.53;63.25
79174;BME280;68599;49.142;9.124;2024-01-11T08:06:29;101053.95;;;-2.49;63.25
79174;BME280;68599;49.142;9.124;2024-01-11T08:08:56;101053.48;;;-2.27;62.59
79174;BME280;68599;49.142;9.124;2024-01-11T08:11:23;101048.36;;;-1.57;61.78
79174;BME280;68599;49.142;9.124;2024-01-11T08:13:50;101041.45;;;-0.96;60.17
79174;BME280;68599;49.142;9.124;2024-01-11T08:16:20;101041.33;;;-0.60;58.74
79174;BME280;68599;49.142;9.124;2024-01-11T08:18:46;101042.21;;;-0.10;58.83
79174;BME280;68599;49.142;9.124;2024-01-11T08:21:15;101044.78;;;0.61;58.17
79174;BME280;68599;49.142;9.124;2024-01-11T08:23:41;101036.28;;;1.72;54.55
79174;BME280;68599;49.142;9.124;2024-01-11T08:26:12;101026.63;;;2.67;53.04
79174;BME280;68599;49.142;9.124;2024-01-11T08:28:41;101021.73;;;3.62;48.51
79174;BME280;68599;49.142;9.124;2024-01-11T08:31:08;101023.50;;;4.71;47.71
79174;BME280;68599;49.142;9.124;2024-01-11T08:33:35;101014.85;;;5.54;42.20
79174;BME280;68599;49.142;9.124;2024-01-11T08:36:05;101019.59;;;6.75;43.55
79174;BME280;68599;49.142;9.124;2024-01-11T08:38:33;101015.79;;;7.37;41.81
79174;BME280;68599;49.142;9.124;2024-01-11T08:40:59;101004.66;;;7.91;39.97
79174;BME280;68599;49.142;9.124;2024-01-11T08:43:27;101005.36;;;8.50;40.66
79174;BME280;68599;49.142;9.124;2024-01-11T08:45:53;101003.42;;;9.14;40.23
79174;BME280;68599;49.142;9.124;2024-01-11T08:48:20;101004.17;;;9.73;38.16
79174;BME280;68599;49.142;9.124;2024-01-11T08:50:48;101011.00;;;9.96;35.93
79174;BME280;68599;49.142;9.124;2024-01-11T08:53:15;101006.17;;;10.25;34.61
79174;BME280;68599;49.142;9.124;2024-01-11T08:55:42;101006.80;;;10.74;34.52
79174;BME280;68599;49.142;9.124;2024-01-11T08:58:13;101009.54;;;10.85;33.10
79174;BME280;68599;49.142;9.124;2024-01-11T09:00:39;101009.14;;;11.38;33.03
79174;BME280;68599;49.142;9.124;2024-01-11T09:03:06;101004.50;;;11.76;32.49
79174;BME280;68599;49.142;9.124;2024-01-11T09:05:33;101008.63;;;12.09;30.40
79174;BME280;68599;49.142;9.124;2024-01-11T09:07:59;101008.59;;;12.87;30.21
79174;BME280;68599;49.142;9.124;2024-01-11T09:10:26;101007.48;;;12.88;29.39
79174;BME280;68599;49.142;9.124;2024-01-11T09:12:54;101005.84;;;12.93;28.44
79174;BME280;68599;49.142;9.124;2024-01-11T09:15:21;101008.68;;;12.62;28.37
79174;BME280;68599;49.142;9.124;2024-01-11T09:17:48;101004.94;;;12.94;28.09
79174;BME280;68599;49.142;9.124;2024-01-11T09:20:16;101005.70;;;13.19;27.64
79174;BME280;68599;49.142;9.124;2024-01-11T09:22:43;101003.81;;;12.99;26.75
79174;BME280;68599;49.142;9.124;2024-01-11T09:25:09;100998.36;;;13.84;27.71
79174;BME280;68599;49.142;9.124;2024-01-11T09:27:36;100995.89;;;14.51;25.87
79174;BME280;68599;49.142;9.124;2024-01-11T09:30:03;100995.77;;;14.46;24.93
79174;BME280;68599;49.142;9.124;2024-01-11T09:32:30;100996.98;;;15.09;24.35
79174;BME280;68599;49.142;9.124;2024-01-11T09:34:58;100994.30;;;15.05;25.00
79174;BME280;68599;49.142;9.124;2024-01-11T09:37:25;100998.33;;;15.88;24.02
79174;BME280;68599;49.142;9.124;2024-01-11T09:39:52;101000.86;;;15.42;23.32
79174;BME280;68599;49.142;9.124;2024-01-11T09:42:19;101006.15;;;15.99;22.89
79174;BME280;68599;49.142;9.124;2024-01-11T09:44:46;101012.27;;;15.67;22.50
79174;BME280;68599;49.142;9.124;2024-01-11T09:47:15;101009.04;;;15.00;22.41
79174;BME280;68599;49.142;9.124;2024-01-11T09:49:45;101004.42;;;14.82;22.69
79174;BME280;68599;49.142;9.124;2024-01-11T09:52:15;100996.29;;;15.69;22.85
79174;BME280;68599;49.142;9.124;2024-01-11T09:54:42;100990.50;;;16.38;22.32
79174;BME280;68599;49.142;9.124;2024-01-11T09:57:09;100988.60;;;16.43;21.21
79174;BME280;68599;49.142;9.124;2024-01-11T09:59:36;100982.79;;;17.21;21.36
79174;BME280;68599;49.142;9.124;2024-01-11T10:02:03;100978.64;;;17.42;20.72
79174;BME280;68599;49.142;9.124;2024-01-11T10:04:35;100977.45;;;17.98;20.40
79174;BME280;68599;49.142;9.124;2024-01-11T10:07:04;100978.02;;;17.97;20.16
79174;BME280;68599;49.142;9.124;2024-01-11T10:09:33;100973.36;;;18.15;19.66
79174;BME280;68599;49.142;9.124;2024-01-11T10:12:00;100967.38;;;18.13;19.56
79174;BME280;68599;49.142;9.124;2024-01-11T10:14:26;100959.93;;;17.84;19.60
79174;BME280;68599;49.142;9.124;2024-01-11T10:16:54;100964.98;;;18.91;19.32
79174;BME280;68599;49.142;9.124;2024-01-11T10:19:21;100972.24;;;18.98;18.28
79174;BME280;68599;49.142;9.124;2024-01-11T10:21:48;100969.16;;;20.30;18.33
79174;BME280;68599;49.142;9.124;2024-01-11T10:24:19;100970.85;;;20.56;16.93
79174;BME280;68599;49.142;9.124;2024-01-11T10:26:47;100975.49;;;20.17;17.00
79174;BME280;68599;49.142;9.124;2024-01-11T10:29:14;100981.45;;;20.56;17.19
79174;BME280;68599;49.142;9.124;2024-01-11T10:31:41;100981.73;;;20.73;16.70
79174;BME280;68599;49.142;9.124;2024-01-11T10:34:07;100990.92;;;20.00;16.80
79174;BME280;68599;49.142;9.124;2024-01-11T10:36:35;100994.77;;;20.31;16.83
79174;BME280;68599;49.142;9.124;2024-01-11T10:39:04;100993.50;;;20.31;16.90
79174;BME280;68599;49.142;9.124;2024-01-11T10:41:40;100982.40;;;19.71;17.18
79174;BME280;68599;49.142;9.124;2024-01-11T10:44:20;100978.86;;;19.61;17.42
79174;BME280;68599;49.142;9.124;2024-01-11T10:46:49;100971.97;;;20.03;17.36
79174;BME280;68599;49.142;9.124;2024-01-11T10:49:19;100963.39;;;20.44;16.78
79174;BME280;68599;49.142;9.124;2024-01-11T10:51:53;100960.84;;;20.42;16.45
79174;BME280;68599;49.142;9.124;2024-01-11T10:54:24;100959.18;;;19.54;17.09
79174;BME280;68599;49.142;9.124;2024-01-11T10:56:53;100955.99;;;20.15;16.96
79174;BME280;68599;49.142;9.124;2024-01-11T10:59:22;100951.00;;;19.74;17.05
79174;BME280;68599;49.142;9.124;2024-01-11T11:01:57;100943.89;;;20.76;16.51
79174;BME280;68599;49.142;9.124;2024-01-11T11:04:25;100950.59;;;20.48;16.29
79174;BME280;68599;49.142;9.124;2024-01-11T11:06:56;100952.27;;;20.48;16.08
79174;BME280;68599;49.142;9.124;2024-01-11T11:09:25;100958.45;;;20.29;15.91
79174;BME280;68599;49.142;9.124;2024-01-11T11:11:58;100964.96;;;20.90;16.08
79174;BME280;68599;49.142;9.124;2024-01-11T11:14:24;100966.96;;;20.71;15.75
79174;BME280;68599;49.142;9.124;2024-01-11T11:16:52;100964.41;;;19.61;16.64
79174;BME280;68599;49.142;9.124;2024-01-11T11:19:20;100962.17;;;20.67;16.11
79174;BME280;68599;49.142;9.124;2024-01-11T11:21:48;100951.86;;;20.64;16.24
79174;BME280;68599;49.142;9.124;2024-01-11T11:24:16;100937.98;;;20.91;16.13
79174;BME280;68599;49.142;9.124;2024-01-11T11:26:43;100931.84;;;20.14;16.03
79174;BME280;68599;49.142;9.124;2024-01-11T11:29:09;100932.86;;;20.52;16.55
79174;BME280;68599;49.142;9.124;2024-01-11T11:31:38;100931.44;;;20.51;16.05
79174;BME280;68599;49.142;9.124;2024-01-11T11:34:05;100926.40;;;21.02;15.89
79174;BME280;68599;49.142;9.124;2024-01-11T11:36:33;100923.86;;;20.49;16.16
79174;BME280;68599;49.142;9.124;2024-01-11T11:39:02;100925.14;;;21.25;15.89
79174;BME280;68599;49.142;9.124;2024-01-11T11:41:32;100922.16;;;21.43;15.66
79174;BME280;68599;49.142;9.124;2024-01-11T11:44:02;100916.15;;;21.15;15.75
79174;BME280;68599;49.142;9.124;2024-01-11T11:46:29;100913.50;;;20.79;16.04
79174;BME280;68599;49.142;9.124;2024-01-11T11:48:57;100918.41;;;20.66;15.87
79174;BME280;68599;49.142;9.124;2024-01-11T11:51:24;100919.13;;;20.67;16.20
79174;BME280;68599;49.142;9.124;2024-01-11T11:53:54;100915.52;;;20.11;16.59
79174;BME280;68599;49.142;9.124;2024-01-11T11:56:22;100917.84;;;20.07;16.94
79174;BME280;68599;49.142;9.124;2024-01-11T11:58:50;100917.04;;;20.10;16.81
79174;BME280;68599;49.142;9.124;2024-01-11T12:01:19;100906.77;;;20.30;16.18
79174;BME280;68599;49.142;9.124;2024-01-11T12:03:46;100903.43;;;19.95;16.38
79174;BME280;68599;49.142;9.124;2024-01-11T12:06:20;100902.48;;;19.92;16.79
79174;BME280;68599;49.142;9.124;2024-01-11T12:08:48;100898.39;;;19.88;16.44
79174;BME280;68599;49.142;9.124;2024-01-11T12:11:19;100893.70;;;19.75;16.40
79174;BME280;68599;49.142;9.124;2024-01-11T12:13:48;100896.17;;;19.35;17.17
79174;BME280;68599;49.142;9.124;2024-01-11T12:16:15;100897.32;;;19.34;16.93
79174;BME280;68599;49.142;9.124;2024-01-11T12:18:42;100892.58;;;19.51;16.89
79174;BME280;68599;49.142;9.124;2024-01-11T12:21:09;100893.27;;;19.46;17.08
79174;BME280;68599;49.142;9.124;2024-01-11T12:23:36;100892.48;;;19.09;17.20
79174;BME280;68599;49.142;9.124;2024-01-11T12:26:06;100888.54;;;19.87;16.95
79174;BME280;68599;49.142;9.124;2024-01-11T12:28:39;100884.40;;;20.01;16.26
79174;BME280;68599;49.142;9.124;2024-01-11T12:31:06;100887.05;;;20.19;16.18
79174;BME280;68599;49.142;9.124;2024-01-11T12:33:33;100886.78;;;19.54;16.67
79174;BME280;68599;49.142;9.124;2024-01-11T12:36:03;100886.27;;;19.19;17.10
79174;BME280;68599;49.142;9.124;2024-01-11T12:38:30;100887.34;;;19.59;16.96
79174;BME280;68599;49.142;9.124;2024-01-11T12:40:57;100878.65;;;19.62;16.84
79174;BME280;68599;49.142;9.124;2024-01-11T12:43:23;100874.20;;;19.42;16.92
79174;BME280;68599;49.142;9.124;2024-01-11T12:45:50;100869.91;;;19.61;17.05
79174;BME280;68599;49.142;9.124;2024-01-11T12:48:17;100862.16;;;19.63;16.95
79174;BME280;68599;49.142;9.124;2024-01-11T12:50:45;100861.13;;;19.87;17.09